sensor_id;sensor_type;location;lat;lon;timestamp;temperature;humidity
11840;DHT22;5979;50.800;4.904;2023-06-14T00:01:24;19.50;99.90
11840;DHT22;5979;50.800;4.904;2023-06-14T00:03:50;19.40;99.90
11840;DHT22;5979;50.800;4.904;2023-06-14T00:06:16;19.30;99.90
11840;DHT22;5979;50.800;4.904;2023-06-14T00:08:43;19.30;99.90
11840;DHT22;5979;50.800;4.904;2023-06-14T00:11:09;19.30;99.90
11840;DHT22;5979;50.800;4.904;2023-06-14T00:13:34;19.20;99.90
11840;DHT22;5979;50.800;4.904;2023-06-14T00:16:00;19.20;99.90
11840;DHT22;5979;50.800;4.904;2023-06-14T00:18:26;19.20;99.90
11840;DHT22;5979;50.800;4.904;2023-06-14T00:20:55;19.10;99.90
11840;DHT22;5979;50.800;4.904;2023-06-14T00:23:21;19.10;99.90
11840;DHT22;5979;50.800;4.904;2023-06-14T00:25:47;19.00;99.90
11840;DHT22;5979;50.800;4.904;2023-06-14T00:28:13;19.00;99.90
11840;DHT22;5979;50.800;4.904;2023-06-14T00:30:39;19.00;99.90
11840;DHT22;5979;50.800;4.904;2023-06-14T00:33:05;19.00;99.90
11840;DHT22;5979;50.800;4.904;2023-06-14T00:35:31;18.90;99.90
11840;DHT22;5979;50.800;4.904;2023-06-14T00:37:57;18.90;99.90
11840;DHT22;5979;50.800;4.904;2023-06-14T00:40:22;18.90;99.90
11840;DHT22;5979;50.800;4.904;2023-06-14T00:42:48;18.90;99.90
11840;DHT22;5979;50.800;4.904;2023-06-14T00:45:14;18.80;99.90
11840;DHT22;5979;50.800;4.904;2023-06-14T00:47:41;18.80;99.90
11840;DHT22;5979;50.800;4.904;2023-06-14T00:50:09;18.80;99.90
11840;DHT22;5979;50.800;4.904;2023-06-14T00:52:35;18.80;99.90
11840;DHT22;5979;50.800;4.904;2023-06-14T00:55:01;18.80;99.90
11840;DHT22;5979;50.800;4.904;2023-06-14T00:57:27;18.80;99.90
11840;DHT22;5979;50.800;4.904;2023-06-14T00:59:55;18.70;99.90
11840;DHT22;5979;50.800;4.904;2023-06-14T01:02:21;18.70;99.90
11840;DHT22;5979;50.800;4.904;2023-06-14T01:04:48;18.70;99.90
11840;DHT22;5979;50.800;4.904;2023-06-14T01:12:44;18.70;99.90
11840;DHT22;5979;50.800;4.904;2023-06-14T01:15:14;18.70;99.90
11840;DHT22;5979;50.800;4.904;2023-06-14T01:17:41;18.60;99.90
11840;DHT22;5979;50.800;4.904;2023-06-14T01:20:13;18.60;99.90
11840;DHT22;5979;50.800;4.904;2023-06-14T01:22:53;18.50;99.90
11840;DHT22;5979;50.800;4.904;2023-06-14T01:25:23;18.50;99.90
11840;DHT22;5979;50.800;4.904;2023-06-14T01:27:51;18.50;99.90
11840;DHT22;5979;50.800;4.904;2023-06-14T01:30:18;18.40;99.90
11840;DHT22;5979;50.800;4.904;2023-06-14T01:32:45;18.40;99.90
11840;DHT22;5979;50.800;4.904;2023-06-14T01:35:11;18.40;99.90
11840;DHT22;5979;50.800;4.904;2023-06-14T01:37:37;18.40;99.90
11840;DHT22;5979;50.800;4.904;2023-06-14T01:40:05;18.40;99.90
11840;DHT22;5979;50.800;4.904;2023-06-14T01:42:36;18.30;99.90
11840;DHT22;5979;50.800;4.904;2023-06-14T01:45:04;18.20;99.90
11840;DHT22;5979;50.800;4.904;2023-06-14T01:47:31;18.20;99.90
11840;DHT22;5979;50.800;4.904;2023-06-14T01:49:58;18.20;99.90
11840;DHT22;5979;50.800;4.904;2023-06-14T01:52:24;18.10;99.90
11840;DHT22;5979;50.800;4.904;2023-06-14T01:54:50;18.10;99.90
11840;DHT22;5979;50.800;4.904;2023-06-14T01:57:16;18.00;99.90
11840;DHT22;5979;50.800;4.904;2023-06-14T01:59:42;18.00;99.90
11840;DHT22;5979;50.800;4.904;2023-06-14T02:02:08;17.90;99.90
11840;DHT22;5979;50.800;4.904;2023-06-14T02:04:33;17.90;99.90
11840;DHT22;5979;50.800;4.904;2023-06-14T02:06:59;17.90;99.90
11840;DHT22;5979;50.800;4.904;2023-06-14T02:09:25;17.90;99.90
11840;DHT22;5979;50.800;4.904;2023-06-14T02:11:51;17.90;99.90
11840;DHT22;5979;50.800;4.904;2023-06-14T02:14:16;17.90;99.90
11840;DHT22;5979;50.800;4.904;2023-06-14T02:16:43;17.90;99.90
11840;DHT22;5979;50.800;4.904;2023-06-14T02:19:18;17.90;99.90
11840;DHT22;5979;50.800;4.904;2023-06-14T02:21:44;17.80;99.90
11840;DHT22;5979;50.800;4.904;2023-06-14T02:24:10;17.90;99.90
11840;DHT22;5979;50.800;4.904;2023-06-14T02:26:36;17.90;99.90
11840;DHT22;5979;50.800;4.904;2023-06-14T02:29:07;17.90;99.90
11840;DHT22;5979;50.800;4.904;2023-06-14T02:31:36;17.90;99.90
11840;DHT22;5979;50.800;4.904;2023-06-14T02:34:02;17.90;99.90
11840;DHT22;5979;50.800;4.904;2023-06-14T02:36:28;17.90;99.90
11840;DHT22;5979;50.800;4.904;2023-06-14T02:38:56;17.90;99.90
11840;DHT22;5979;50.800;4.904;2023-06-14T02:41:35;17.90;99.90
11840;DHT22;5979;50.800;4.904;2023-06-14T02:44:03;17.80;99.90
11840;DHT22;5979;50.800;4.904;2023-06-14T02:46:29;17.70;99.90
11840;DHT22;5979;50.800;4.904;2023-06-14T02:48:55;17.70;99.90
11840;DHT22;5979;50.800;4.904;2023-06-14T02:51:20;17.70;99.90
11840;DHT22;5979;50.800;4.904;2023-06-14T02:53:46;17.60;99.90
11840;DHT22;5979;50.800;4.904;2023-06-14T02:56:12;17.50;99.90
11840;DHT22;5979;50.800;4.904;2023-06-14T02:58:38;17.50;99.90
11840;DHT22;5979;50.800;4.904;2023-06-14T03:01:05;17.50;99.90
11840;DHT22;5979;50.800;4.904;2023-06-14T03:03:33;17.50;99.90
11840;DHT22;5979;50.800;4.904;2023-06-14T03:05:59;17.40;99.90
11840;DHT22;5979;50.800;4.904;2023-06-14T03:08:29;17.40;99.90
11840;DHT22;5979;50.800;4.904;2023-06-14T03:10:55;17.40;99.90
11840;DHT22;5979;50.800;4.904;2023-06-14T03:13:21;17.40;99.90
11840;DHT22;5979;50.800;4.904;2023-06-14T03:15:47;17.40;99.90
11840;DHT22;5979;50.800;4.904;2023-06-14T03:18:16;17.30;99.90
11840;DHT22;5979;50.800;4.904;2023-06-14T03:20:42;17.30;99.90
11840;DHT22;5979;50.800;4.904;2023-06-14T03:23:08;17.30;99.90
11840;DHT22;5979;50.800;4.904;2023-06-14T03:25:34;17.30;99.90
11840;DHT22;5979;50.800;4.904;2023-06-14T03:28:04;17.20;99.90
11840;DHT22;5979;50.800;4.904;2023-06-14T03:30:31;17.20;99.90
11840;DHT22;5979;50.800;4.904;2023-06-14T03:32:57;17.10;99.90
11840;DHT22;5979;50.800;4.904;2023-06-14T03:35:23;17.10;99.90
11840;DHT22;5979;50.800;4.904;2023-06-14T03:37:49;17.10;99.90
11840;DHT22;5979;50.800;4.904;2023-06-14T03:40:17;17.00;99.90
11840;DHT22;5979;50.800;4.904;2023-06-14T03:42:43;17.00;99.90
11840;DHT22;5979;50.800;4.904;2023-06-14T03:45:09;17.00;99.90
11840;DHT22;5979;50.800;4.904;2023-06-14T03:47:35;17.10;99.90
11840;DHT22;5979;50.800;4.904;2023-06-14T03:50:02;17.00;99.90
11840;DHT22;5979;50.800;4.904;2023-06-14T03:52:28;17.00;99.90
11840;DHT22;5979;50.800;4.904;2023-06-14T03:54:54;17.00;99.90
11840;DHT22;5979;50.800;4.904;2023-06-14T03:57:21;17.00;99.90
11840;DHT22;5979;50.800;4.904;2023-06-14T03:59:47;17.00;99.90
11840;DHT22;5979;50.800;4.904;2023-06-14T04:02:12;17.10;99.90
11840;DHT22;5979;50.800;4.904;2023-06-14T04:04:41;17.10;99.90
11840;DHT22;5979;50.800;4.904;2023-06-14T04:07:10;17.10;99.90
11840;DHT22;5979;50.800;4.904;2023-06-14T04:09:37;17.20;99.90
11840;DHT22;5979;50.800;4.904;2023-06-14T04:12:03;17.20;99.90
11840;DHT22;5979;50.800;4.904;2023-06-14T04:14:29;17.30;99.90
11840;DHT22;5979;50.800;4.904;2023-06-14T04:16:56;17.40;99.90
11840;DHT22;5979;50.800;4.904;2023-06-14T04:19:21;17.50;99.90
11840;DHT22;5979;50.800;4.904;2023-06-14T04:21:47;17.90;99.90
11840;DHT22;5979;50.800;4.904;2023-06-14T04:24:13;18.40;99.90
11840;DHT22;5979;50.800;4.904;2023-06-14T04:26:43;18.90;99.90
11840;DHT22;5979;50.800;4.904;2023-06-14T04:29:13;19.60;99.90
11840;DHT22;5979;50.800;4.904;2023-06-14T04:31:43;20.10;99.90
11840;DHT22;5979;50.800;4.904;2023-06-14T04:34:10;20.60;99.90
11840;DHT22;5979;50.800;4.904;2023-06-14T04:36:44;20.90;99.90
11840;DHT22;5979;50.800;4.904;2023-06-14T04:39:21;21.30;99.90
11840;DHT22;5979;50.800;4.904;2023-06-14T04:41:47;21.60;99.90
11840;DHT22;5979;50.800;4.904;2023-06-14T04:44:13;21.90;99.90
11840;DHT22;5979;50.800;4.904;2023-06-14T04:46:39;22.30;99.90
11840;DHT22;5979;50.800;4.904;2023-06-14T04:49:20;22.80;99.90
11840;DHT22;5979;50.800;4.904;2023-06-14T04:51:46;23.20;99.90
11840;DHT22;5979;50.800;4.904;2023-06-14T04:54:12;23.60;99.90
11840;DHT22;5979;50.800;4.904;2023-06-14T04:56:42;23.90;99.90
11840;DHT22;5979;50.800;4.904;2023-06-14T04:59:08;24.30;99.90
11840;DHT22;5979;50.800;4.904;2023-06-14T05:01:34;24.60;99.90
11840;DHT22;5979;50.800;4.904;2023-06-14T05:04:00;24.80;99.90
11840;DHT22;5979;50.800;4.904;2023-06-14T05:06:26;25.10;99.90
11840;DHT22;5979;50.800;4.904;2023-06-14T05:08:53;25.40;99.90
11840;DHT22;5979;50.800;4.904;2023-06-14T05:11:19;25.60;99.90
11840;DHT22;5979;50.800;4.904;2023-06-14T05:13:45;25.80;99.90
11840;DHT22;5979;50.800;4.904;2023-06-14T05:16:12;26.00;99.90
11840;DHT22;5979;50.800;4.904;2023-06-14T05:18:37;26.20;99.90
11840;DHT22;5979;50.800;4.904;2023-06-14T05:21:03;26.20;99.90
11840;DHT22;5979;50.800;4.904;2023-06-14T05:23:32;26.20;99.90
11840;DHT22;5979;50.800;4.904;2023-06-14T05:25:57;26.30;99.90
11840;DHT22;5979;50.800;4.904;2023-06-14T05:28:23;26.40;99.90
11840;DHT22;5979;50.800;4.904;2023-06-14T05:30:49;26.40;99.90
11840;DHT22;5979;50.800;4.904;2023-06-14T05:33:16;26.60;99.90
11840;DHT22;5979;50.800;4.904;2023-06-14T05:35:42;26.80;99.90
11840;DHT22;5979;50.800;4.904;2023-06-14T05:38:07;26.80;99.90
11840;DHT22;5979;50.800;4.904;2023-06-14T05:40:33;26.80;99.90
11840;DHT22;5979;50.800;4.904;2023-06-14T05:42:59;26.90;99.90
11840;DHT22;5979;50.800;4.904;2023-06-14T05:45:25;26.80;99.90
11840;DHT22;5979;50.800;4.904;2023-06-14T05:47:52;27.00;99.90
11840;DHT22;5979;50.800;4.904;2023-06-14T05:50:20;27.00;99.90
11840;DHT22;5979;50.800;4.904;2023-06-14T05:52:45;27.00;99.90
11840;DHT22;5979;50.800;4.904;2023-06-14T05:55:11;27.30;99.90
11840;DHT22;5979;50.800;4.904;2023-06-14T05:57:40;27.50;99.80
11840;DHT22;5979;50.800;4.904;2023-06-14T06:00:07;27.60;98.60
11840;DHT22;5979;50.800;4.904;2023-06-14T06:02:37;27.40;98.30
11840;DHT22;5979;50.800;4.904;2023-06-14T06:05:03;27.40;98.20
11840;DHT22;5979;50.800;4.904;2023-06-14T06:07:28;27.30;98.50
11840;DHT22;5979;50.800;4.904;2023-06-14T06:09:54;26.90;98.60
11840;DHT22;5979;50.800;4.904;2023-06-14T06:12:20;26.60;98.60
11840;DHT22;5979;50.800;4.904;2023-06-14T06:14:45;26.40;99.40
11840;DHT22;5979;50.800;4.904;2023-06-14T06:17:11;26.20;98.80
11840;DHT22;5979;50.800;4.904;2023-06-14T06:19:37;26.20;99.50
11840;DHT22;5979;50.800;4.904;2023-06-14T06:22:02;26.10;99.70
11840;DHT22;5979;50.800;4.904;2023-06-14T06:24:31;26.10;99.80
11840;DHT22;5979;50.800;4.904;2023-06-14T06:26:57;25.90;99.90
11840;DHT22;5979;50.800;4.904;2023-06-14T06:29:23;25.90;99.90
11840;DHT22;5979;50.800;4.904;2023-06-14T06:31:48;25.90;99.80
11840;DHT22;5979;50.800;4.904;2023-06-14T06:34:14;26.10;99.90
11840;DHT22;5979;50.800;4.904;2023-06-14T06:36:40;26.20;99.90
11840;DHT22;5979;50.800;4.904;2023-06-14T06:39:05;26.30;99.30
11840;DHT22;5979;50.800;4.904;2023-06-14T06:41:37;26.40;99.30
11840;DHT22;5979;50.800;4.904;2023-06-14T06:44:05;25.60;99.10
11840;DHT22;5979;50.800;4.904;2023-06-14T06:46:32;25.90;99.80
11840;DHT22;5979;50.800;4.904;2023-06-14T06:48:58;25.60;99.80
11840;DHT22;5979;50.800;4.904;2023-06-14T06:51:24;25.60;99.90
11840;DHT22;5979;50.800;4.904;2023-06-14T06:53:54;25.80;99.90
11840;DHT22;5979;50.800;4.904;2023-06-14T06:56:20;25.90;99.90
11840;DHT22;5979;50.800;4.904;2023-06-14T06:58:51;25.80;99.90
11840;DHT22;5979;50.800;4.904;2023-06-14T07:01:17;25.60;99.90
11840;DHT22;5979;50.800;4.904;2023-06-14T07:03:45;25.60;99.90
11840;DHT22;5979;50.800;4.904;2023-06-14T07:06:11;25.60;99.90
11840;DHT22;5979;50.800;4.904;2023-06-14T07:08:38;25.50;99.90
11840;DHT22;5979;50.800;4.904;2023-06-14T07:11:04;25.40;99.90
11840;DHT22;5979;50.800;4.904;2023-06-14T07:13:31;25.40;99.90
11840;DHT22;5979;50.800;4.904;2023-06-14T07:15:58;25.40;99.90
11840;DHT22;5979;50.800;4.904;2023-06-14T07:18:24;25.50;99.90
11840;DHT22;5979;50.800;4.904;2023-06-14T07:20:50;25.30;99.90
11840;DHT22;5979;50.800;4.904;2023-06-14T07:23:16;25.40;99.90
11840;DHT22;5979;50.800;4.904;2023-06-14T07:25:41;25.40;99.90
11840;DHT22;5979;50.800;4.904;2023-06-14T07:28:07;25.20;99.90
11840;DHT22;5979;50.800;4.904;2023-06-14T07:30:33;25.30;99.90
11840;DHT22;5979;50.800;4.904;2023-06-14T07:32:58;25.50;99.90
11840;DHT22;5979;50.800;4.904;2023-06-14T07:35:24;25.50;99.90
11840;DHT22;5979;50.800;4.904;2023-06-14T07:37:50;25.60;99.90
11840;DHT22;5979;50.800;4.904;2023-06-14T07:40:16;25.50;99.90
11840;DHT22;5979;50.800;4.904;2023-06-14T07:42:41;25.30;99.90
11840;DHT22;5979;50.800;4.904;2023-06-14T07:45:07;25.30;99.90
11840;DHT22;5979;50.800;4.904;2023-06-14T07:47:33;25.00;99.90
11840;DHT22;5979;50.800;4.904;2023-06-14T07:49:59;25.00;99.90
11840;DHT22;5979;50.800;4.904;2023-06-14T07:52:25;25.10;99.90
11840;DHT22;5979;50.800;4.904;2023-06-14T07:54:50;25.40;99.90
11840;DHT22;5979;50.800;4.904;2023-06-14T07:57:16;25.60;99.90
11840;DHT22;5979;50.800;4.904;2023-06-14T07:59:42;25.70;99.90
11840;DHT22;5979;50.800;4.904;2023-06-14T08:02:08;25.50;99.90
11840;DHT22;5979;50.800;4.904;2023-06-14T08:04:33;25.50;99.90
11840;DHT22;5979;50.800;4.904;2023-06-14T08:07:00;25.50;99.90
11840;DHT22;5979;50.800;4.904;2023-06-14T08:09:26;25.70;99.90
11840;DHT22;5979;50.800;4.904;2023-06-14T08:11:54;25.70;99.90
11840;DHT22;5979;50.800;4.904;2023-06-14T08:14:19;25.90;99.90
11840;DHT22;5979;50.800;4.904;2023-06-14T08:16:45;26.00;99.90
11840;DHT22;5979;50.800;4.904;2023-06-14T08:19:11;25.90;99.90
11840;DHT22;5979;50.800;4.904;2023-06-14T08:21:37;26.20;99.90
11840;DHT22;5979;50.800;4.904;2023-06-14T08:24:02;26.20;99.90
11840;DHT22;5979;50.800;4.904;2023-06-14T08:26:29;26.20;99.90
11840;DHT22;5979;50.800;4.904;2023-06-14T08:28:55;26.40;99.90
11840;DHT22;5979;50.800;4.904;2023-06-14T08:31:21;26.20;99.90
11840;DHT22;5979;50.800;4.904;2023-06-14T08:33:47;26.20;99.90
11840;DHT22;5979;50.800;4.904;2023-06-14T08:36:13;26.30;99.90
11840;DHT22;5979;50.800;4.904;2023-06-14T08:38:39;26.30;99.90
11840;DHT22;5979;50.800;4.904;2023-06-14T08:41:05;26.40;99.90
11840;DHT22;5979;50.800;4.904;2023-06-14T08:43:32;26.70;99.90
11840;DHT22;5979;50.800;4.904;2023-06-14T08:46:03;26.90;99.90
11840;DHT22;5979;50.800;4.904;2023-06-14T08:48:30;27.00;99.90
11840;DHT22;5979;50.800;4.904;2023-06-14T08:51:00;26.80;99.60
11840;DHT22;5979;50.800;4.904;2023-06-14T08:53:33;26.90;99.90
11840;DHT22;5979;50.800;4.904;2023-06-14T08:56:03;26.60;99.90
11840;DHT22;5979;50.800;4.904;2023-06-14T08:58:30;26.50;99.90
11840;DHT22;5979;50.800;4.904;2023-06-14T09:01:01;26.80;99.90
11840;DHT22;5979;50.800;4.904;2023-06-14T09:03:27;26.90;99.90
11840;DHT22;5979;50.800;4.904;2023-06-14T09:05:59;27.10;99.90
11840;DHT22;5979;50.800;4.904;2023-06-14T09:08:27;27.10;97.00
11840;DHT22;5979;50.800;4.904;2023-06-14T09:10:56;27.20;97.00
11840;DHT22;5979;50.800;4.904;2023-06-14T09:13:21;27.10;97.70
11840;DHT22;5979;50.800;4.904;2023-06-14T09:15:47;26.90;96.90
11840;DHT22;5979;50.800;4.904;2023-06-14T09:18:13;27.00;97.10
11840;DHT22;5979;50.800;4.904;2023-06-14T09:20:38;26.90;96.90
11840;DHT22;5979;50.800;4.904;2023-06-14T09:23:05;27.00;95.70
11840;DHT22;5979;50.800;4.904;2023-06-14T09:25:31;26.90;95.80
11840;DHT22;5979;50.800;4.904;2023-06-14T09:27:56;27.00;96.20
11840;DHT22;5979;50.800;4.904;2023-06-14T09:30:22;26.90;95.60
11840;DHT22;5979;50.800;4.904;2023-06-14T09:32:48;27.10;96.20
11840;DHT22;5979;50.800;4.904;2023-06-14T09:35:17;27.10;96.20
11840;DHT22;5979;50.800;4.904;2023-06-14T09:37:43;27.10;95.70
11840;DHT22;5979;50.800;4.904;2023-06-14T09:40:09;27.30;97.00
11840;DHT22;5979;50.800;4.904;2023-06-14T09:42:36;27.30;95.50
11840;DHT22;5979;50.800;4.904;2023-06-14T09:45:03;26.80;94.90
11840;DHT22;5979;50.800;4.904;2023-06-14T09:47:29;27.00;97.00
11840;DHT22;5979;50.800;4.904;2023-06-14T09:49:55;27.00;93.70
11840;DHT22;5979;50.800;4.904;2023-06-14T09:52:21;27.00;95.50
11840;DHT22;5979;50.800;4.904;2023-06-14T09:54:48;27.20;94.60
11840;DHT22;5979;50.800;4.904;2023-06-14T09:57:16;27.30;94.70
11840;DHT22;5979;50.800;4.904;2023-06-14T09:59:44;27.20;93.50
11840;DHT22;5979;50.800;4.904;2023-06-14T10:04:49;27.30;95.70
11840;DHT22;5979;50.800;4.904;2023-06-14T10:07:19;27.30;95.30
11840;DHT22;5979;50.800;4.904;2023-06-14T10:09:46;27.30;94.20
11840;DHT22;5979;50.800;4.904;2023-06-14T10:12:17;27.40;95.30
11840;DHT22;5979;50.800;4.904;2023-06-14T10:14:51;27.50;94.30
11840;DHT22;5979;50.800;4.904;2023-06-14T10:17:48;27.40;95.40
11840;DHT22;5979;50.800;4.904;2023-06-14T10:20:26;27.30;94.30
11840;DHT22;5979;50.800;4.904;2023-06-14T10:23:03;27.40;93.80
11840;DHT22;5979;50.800;4.904;2023-06-14T10:25:33;27.30;93.80
11840;DHT22;5979;50.800;4.904;2023-06-14T10:28:19;27.50;94.40
11840;DHT22;5979;50.800;4.904;2023-06-14T10:33:33;27.60;93.00
11840;DHT22;5979;50.800;4.904;2023-06-14T10:36:26;27.60;93.80
11840;DHT22;5979;50.800;4.904;2023-06-14T10:39:01;27.50;92.20
11840;DHT22;5979;50.800;4.904;2023-06-14T10:41:29;27.30;93.00
11840;DHT22;5979;50.800;4.904;2023-06-14T10:46:55;27.20;92.90
11840;DHT22;5979;50.800;4.904;2023-06-14T10:49:42;27.10;92.20
11840;DHT22;5979;50.800;4.904;2023-06-14T10:52:12;27.10;92.60
11840;DHT22;5979;50.800;4.904;2023-06-14T10:55:12;27.10;90.90
11840;DHT22;5979;50.800;4.904;2023-06-14T10:57:53;27.20;92.00
11840;DHT22;5979;50.800;4.904;2023-06-14T11:00:25;27.20;92.30
11840;DHT22;5979;50.800;4.904;2023-06-14T11:11:09;27.60;90.40
11840;DHT22;5979;50.800;4.904;2023-06-14T11:13:41;27.80;91.00
11840;DHT22;5979;50.800;4.904;2023-06-14T11:16:14;27.80;91.10
11840;DHT22;5979;50.800;4.904;2023-06-14T11:18:41;27.80;90.30
11840;DHT22;5979;50.800;4.904;2023-06-14T11:21:07;27.60;88.40
11840;DHT22;5979;50.800;4.904;2023-06-14T11:23:34;27.60;89.00
11840;DHT22;5979;50.800;4.904;2023-06-14T11:26:00;27.40;90.10
11840;DHT22;5979;50.800;4.904;2023-06-14T11:28:38;27.50;90.00
11840;DHT22;5979;50.800;4.904;2023-06-14T11:31:04;27.30;90.00
11840;DHT22;5979;50.800;4.904;2023-06-14T11:33:30;27.20;90.40
11840;DHT22;5979;50.800;4.904;2023-06-14T11:35:56;27.30;89.40
11840;DHT22;5979;50.800;4.904;2023-06-14T11:38:22;27.20;90.20
11840;DHT22;5979;50.800;4.904;2023-06-14T11:40:47;27.30;90.70
11840;DHT22;5979;50.800;4.904;2023-06-14T11:43:13;27.20;90.50
11840;DHT22;5979;50.800;4.904;2023-06-14T11:45:39;27.40;90.80
11840;DHT22;5979;50.800;4.904;2023-06-14T11:48:06;27.70;90.50
11840;DHT22;5979;50.800;4.904;2023-06-14T11:50:32;28.00;90.70
11840;DHT22;5979;50.800;4.904;2023-06-14T11:53:01;27.90;90.50
11840;DHT22;5979;50.800;4.904;2023-06-14T11:55:38;27.90;89.00
11840;DHT22;5979;50.800;4.904;2023-06-14T11:58:04;27.80;89.90
11840;DHT22;5979;50.800;4.904;2023-06-14T12:00:31;27.50;87.60
11840;DHT22;5979;50.800;4.904;2023-06-14T12:02:57;27.50;87.60
11840;DHT22;5979;50.800;4.904;2023-06-14T12:05:24;27.70;90.00
11840;DHT22;5979;50.800;4.904;2023-06-14T12:07:50;27.70;88.10
11840;DHT22;5979;50.800;4.904;2023-06-14T12:10:19;27.40;87.30
11840;DHT22;5979;50.800;4.904;2023-06-14T12:12:45;27.60;85.00
11840;DHT22;5979;50.800;4.904;2023-06-14T12:15:11;27.70;82.40
11840;DHT22;5979;50.800;4.904;2023-06-14T12:17:38;27.70;85.50
11840;DHT22;5979;50.800;4.904;2023-06-14T12:20:10;27.90;86.20
11840;DHT22;5979;50.800;4.904;2023-06-14T12:22:37;27.50;83.20
11840;DHT22;5979;50.800;4.904;2023-06-14T12:25:06;27.60;88.80
11840;DHT22;5979;50.800;4.904;2023-06-14T12:27:31;27.70;85.50
11840;DHT22;5979;50.800;4.904;2023-06-14T12:30:02;27.50;81.60
11840;DHT22;5979;50.800;4.904;2023-06-14T12:32:28;27.60;84.60
11840;DHT22;5979;50.800;4.904;2023-06-14T12:34:55;27.60;81.00
11840;DHT22;5979;50.800;4.904;2023-06-14T12:37:20;27.40;80.60
11840;DHT22;5979;50.800;4.904;2023-06-14T12:39:46;27.20;80.00
11840;DHT22;5979;50.800;4.904;2023-06-14T12:42:11;27.10;80.40
11840;DHT22;5979;50.800;4.904;2023-06-14T12:44:39;27.30;82.10
11840;DHT22;5979;50.800;4.904;2023-06-14T12:47:07;27.40;81.50
11840;DHT22;5979;50.800;4.904;2023-06-14T12:49:33;27.40;80.30
11840;DHT22;5979;50.800;4.904;2023-06-14T12:51:58;27.60;80.40
11840;DHT22;5979;50.800;4.904;2023-06-14T12:54:24;27.60;78.70
11840;DHT22;5979;50.800;4.904;2023-06-14T12:56:53;27.60;80.40
11840;DHT22;5979;50.800;4.904;2023-06-14T12:59:20;27.60;79.90
11840;DHT22;5979;50.800;4.904;2023-06-14T13:01:46;27.50;79.80
11840;DHT22;5979;50.800;4.904;2023-06-14T13:04:15;27.40;76.00
11840;DHT22;5979;50.800;4.904;2023-06-14T13:06:40;27.40;79.30
11840;DHT22;5979;50.800;4.904;2023-06-14T13:09:06;27.40;78.70
11840;DHT22;5979;50.800;4.904;2023-06-14T13:11:33;27.40;79.10
11840;DHT22;5979;50.800;4.904;2023-06-14T13:13:59;27.30;75.20
11840;DHT22;5979;50.800;4.904;2023-06-14T13:16:24;27.20;76.20
11840;DHT22;5979;50.800;4.904;2023-06-14T13:18:50;27.20;76.40
11840;DHT22;5979;50.800;4.904;2023-06-14T13:21:16;27.30;74.60
11840;DHT22;5979;50.800;4.904;2023-06-14T13:23:42;27.30;76.10
11840;DHT22;5979;50.800;4.904;2023-06-14T13:26:07;27.30;77.90
11840;DHT22;5979;50.800;4.904;2023-06-14T13:28:33;27.10;74.50
11840;DHT22;5979;50.800;4.904;2023-06-14T13:31:00;27.10;76.30
11840;DHT22;5979;50.800;4.904;2023-06-14T13:33:27;27.10;77.40
11840;DHT22;5979;50.800;4.904;2023-06-14T13:35:53;27.20;78.60
11840;DHT22;5979;50.800;4.904;2023-06-14T13:38:19;27.10;77.60
11840;DHT22;5979;50.800;4.904;2023-06-14T13:40:44;27.00;77.50
11840;DHT22;5979;50.800;4.904;2023-06-14T13:43:10;27.10;79.40
11840;DHT22;5979;50.800;4.904;2023-06-14T13:45:36;27.00;76.80
11840;DHT22;5979;50.800;4.904;2023-06-14T13:48:02;27.00;76.50
11840;DHT22;5979;50.800;4.904;2023-06-14T13:50:27;26.90;77.40
11840;DHT22;5979;50.800;4.904;2023-06-14T13:52:54;26.90;78.50
11840;DHT22;5979;50.800;4.904;2023-06-14T13:55:19;26.70;75.40
11840;DHT22;5979;50.800;4.904;2023-06-14T13:57:45;26.60;77.30
11840;DHT22;5979;50.800;4.904;2023-06-14T14:00:11;26.70;76.30
11840;DHT22;5979;50.800;4.904;2023-06-14T14:02:37;26.70;78.40
11840;DHT22;5979;50.800;4.904;2023-06-14T14:05:03;26.80;79.50
11840;DHT22;5979;50.800;4.904;2023-06-14T14:07:29;26.80;77.90
11840;DHT22;5979;50.800;4.904;2023-06-14T14:09:55;26.70;81.30
11840;DHT22;5979;50.800;4.904;2023-06-14T14:12:23;26.70;80.70
11840;DHT22;5979;50.800;4.904;2023-06-14T14:14:49;26.70;80.60
11840;DHT22;5979;50.800;4.904;2023-06-14T14:17:15;26.70;79.50
11840;DHT22;5979;50.800;4.904;2023-06-14T14:19:41;26.70;79.50
11840;DHT22;5979;50.800;4.904;2023-06-14T14:22:07;26.70;79.10
11840;DHT22;5979;50.800;4.904;2023-06-14T14:24:32;26.70;78.20
11840;DHT22;5979;50.800;4.904;2023-06-14T14:26:58;26.70;79.10
11840;DHT22;5979;50.800;4.904;2023-06-14T14:29:25;26.60;78.00
11840;DHT22;5979;50.800;4.904;2023-06-14T14:31:54;26.50;80.70
11840;DHT22;5979;50.800;4.904;2023-06-14T14:34:20;26.40;79.60
11840;DHT22;5979;50.800;4.904;2023-06-14T14:36:46;26.40;80.70
11840;DHT22;5979;50.800;4.904;2023-06-14T14:39:11;26.40;78.50
11840;DHT22;5979;50.800;4.904;2023-06-14T14:41:37;26.50;80.60
11840;DHT22;5979;50.800;4.904;2023-06-14T14:44:04;26.50;79.20
11840;DHT22;5979;50.800;4.904;2023-06-14T14:46:30;26.50;76.30
11840;DHT22;5979;50.800;4.904;2023-06-14T14:48:55;26.30;78.10
11840;DHT22;5979;50.800;4.904;2023-06-14T14:51:21;26.30;79.60
11840;DHT22;5979;50.800;4.904;2023-06-14T14:53:47;26.40;79.70
11840;DHT22;5979;50.800;4.904;2023-06-14T14:56:12;26.40;81.50
11840;DHT22;5979;50.800;4.904;2023-06-14T14:58:38;26.30;79.50
11840;DHT22;5979;50.800;4.904;2023-06-14T15:01:04;26.40;82.20
11840;DHT22;5979;50.800;4.904;2023-06-14T15:03:31;26.50;81.90
11840;DHT22;5979;50.800;4.904;2023-06-14T15:05:57;26.60;82.80
11840;DHT22;5979;50.800;4.904;2023-06-14T15:08:22;26.60;82.50
11840;DHT22;5979;50.800;4.904;2023-06-14T15:10:48;26.70;82.10
11840;DHT22;5979;50.800;4.904;2023-06-14T15:13:14;26.70;81.10
11840;DHT22;5979;50.800;4.904;2023-06-14T15:15:40;26.70;81.50
11840;DHT22;5979;50.800;4.904;2023-06-14T15:18:05;26.60;80.50
11840;DHT22;5979;50.800;4.904;2023-06-14T15:20:31;26.60;81.10
11840;DHT22;5979;50.800;4.904;2023-06-14T15:22:57;26.60;84.60
11840;DHT22;5979;50.800;4.904;2023-06-14T15:25:28;26.60;80.30
11840;DHT22;5979;50.800;4.904;2023-06-14T15:27:55;26.50;83.40
11840;DHT22;5979;50.800;4.904;2023-06-14T15:30:21;26.40;80.70
11840;DHT22;5979;50.800;4.904;2023-06-14T15:32:47;26.30;79.80
11840;DHT22;5979;50.800;4.904;2023-06-14T15:35:15;26.30;81.30
11840;DHT22;5979;50.800;4.904;2023-06-14T15:37:40;26.20;81.40
11840;DHT22;5979;50.800;4.904;2023-06-14T15:40:06;26.30;81.50
11840;DHT22;5979;50.800;4.904;2023-06-14T15:42:32;26.30;81.80
11840;DHT22;5979;50.800;4.904;2023-06-14T15:44:58;26.40;80.80
11840;DHT22;5979;50.800;4.904;2023-06-14T15:47:23;26.30;78.20
11840;DHT22;5979;50.800;4.904;2023-06-14T15:49:49;26.20;78.50
11840;DHT22;5979;50.800;4.904;2023-06-14T15:52:15;26.20;80.10
11840;DHT22;5979;50.800;4.904;2023-06-14T15:54:40;26.30;78.90
11840;DHT22;5979;50.800;4.904;2023-06-14T15:57:06;26.30;78.00
11840;DHT22;5979;50.800;4.904;2023-06-14T15:59:32;26.20;79.40
11840;DHT22;5979;50.800;4.904;2023-06-14T16:01:58;26.20;78.70
11840;DHT22;5979;50.800;4.904;2023-06-14T16:04:24;26.20;79.20
11840;DHT22;5979;50.800;4.904;2023-06-14T16:06:49;26.20;82.30